Hesperia, Michigan
Current Conditions -  °F | °C
As of 6:34 PM on Saturday 22 Nov 2014 (Local Time) from KFFX Reporting Station
Haze Haze  
Wind Chill: 34°   Ceiling: 600
Heat Index: 39°   Visibility: 1.5mi
Dew Point: 38°   Wind: 7mph
Humidity: 98%   Direction: 210°SSW
Pressure: 29.83"   Gusts: NA
Location:  43.57°N, 86.04°W
Report Text: KFFX 222334Z AUTO 21006KT 1 1/2SM BR OVC006 04/04 A2983 RMK AO2 T00390036
Loading
Personal Weather Stations






























Interactive Weather Map New forecast layout! Learn more

10-Day Weather Forecast

Advertisements
Track Severe Weather on mobile